sensor_id;sensor_type;location;lat;lon;timestamp;P1;durP1;ratioP1;P2;durP2;ratioP2
57317;SDS011;43157;50.982;18.132;2024-01-15T00:02:05;18.60;;;7.90;;
57317;SDS011;43157;50.982;18.132;2024-01-15T00:04:36;20.90;;;8.30;;
57317;SDS011;43157;50.982;18.132;2024-01-15T00:07:03;20.20;;;7.30;;
57317;SDS011;43157;50.982;18.132;2024-01-15T00:09:29;17.40;;;6.80;;
57317;SDS011;43157;50.982;18.132;2024-01-15T00:11:54;16.90;;;6.20;;
57317;SDS011;43157;50.982;18.132;2024-01-15T00:14:20;15.80;;;6.50;;
57317;SDS011;43157;50.982;18.132;2024-01-15T00:16:46;22.40;;;8.10;;
57317;SDS011;43157;50.982;18.132;2024-01-15T00:19:12;17.00;;;7.00;;
57317;SDS011;43157;50.982;18.132;2024-01-15T00:21:37;21.70;;;8.30;;
57317;SDS011;43157;50.982;18.132;2024-01-15T00:24:03;18.40;;;6.70;;
57317;SDS011;43157;50.982;18.132;2024-01-15T00:26:29;20.50;;;7.80;;
57317;SDS011;43157;50.982;18.132;2024-01-15T00:28:55;18.70;;;7.40;;
57317;SDS011;43157;50.982;18.132;2024-01-15T00:31:20;19.40;;;8.00;;
57317;SDS011;43157;50.982;18.132;2024-01-15T00:33:46;17.20;;;6.80;;
57317;SDS011;43157;50.982;18.132;2024-01-15T00:36:11;17.50;;;7.10;;
57317;SDS011;43157;50.982;18.132;2024-01-15T00:38:37;15.10;;;6.40;;
57317;SDS011;43157;50.982;18.132;2024-01-15T00:41:02;20.60;;;8.80;;
57317;SDS011;43157;50.982;18.132;2024-01-15T00:43:28;17.50;;;6.90;;
57317;SDS011;43157;50.982;18.132;2024-01-15T00:45:53;22.90;;;8.30;;
57317;SDS011;43157;50.982;18.132;2024-01-15T00:48:19;21.80;;;7.90;;
57317;SDS011;43157;50.982;18.132;2024-01-15T00:50:44;16.70;;;7.10;;
57317;SDS011;43157;50.982;18.132;2024-01-15T00:53:10;17.80;;;7.70;;
57317;SDS011;43157;50.982;18.132;2024-01-15T00:55:36;19.20;;;7.80;;
57317;SDS011;43157;50.982;18.132;2024-01-15T00:58:03;20.30;;;7.30;;
57317;SDS011;43157;50.982;18.132;2024-01-15T01:00:29;18.00;;;7.30;;
57317;SDS011;43157;50.982;18.132;2024-01-15T01:02:54;21.40;;;8.90;;
57317;SDS011;43157;50.982;18.132;2024-01-15T01:05:20;17.90;;;6.30;;
57317;SDS011;43157;50.982;18.132;2024-01-15T01:07:45;21.10;;;8.70;;
57317;SDS011;43157;50.982;18.132;2024-01-15T01:10:11;18.40;;;7.80;;
57317;SDS011;43157;50.982;18.132;2024-01-15T01:12:37;17.70;;;7.40;;
57317;SDS011;43157;50.982;18.132;2024-01-15T01:15:03;17.30;;;6.00;;
57317;SDS011;43157;50.982;18.132;2024-01-15T01:17:29;15.90;;;6.40;;
57317;SDS011;43157;50.982;18.132;2024-01-15T01:19:55;17.20;;;6.60;;
57317;SDS011;43157;50.982;18.132;2024-01-15T01:22:21;17.90;;;7.00;;
57317;SDS011;43157;50.982;18.132;2024-01-15T01:24:46;19.10;;;7.40;;
57317;SDS011;43157;50.982;18.132;2024-01-15T01:27:12;16.10;;;6.50;;
57317;SDS011;43157;50.982;18.132;2024-01-15T01:29:37;17.20;;;6.40;;
57317;SDS011;43157;50.982;18.132;2024-01-15T01:32:03;16.50;;;6.20;;
57317;SDS011;43157;50.982;18.132;2024-01-15T01:34:32;16.80;;;7.60;;
57317;SDS011;43157;50.982;18.132;2024-01-15T01:36:58;17.80;;;7.10;;
57317;SDS011;43157;50.982;18.132;2024-01-15T01:39:24;19.60;;;8.00;;
57317;SDS011;43157;50.982;18.132;2024-01-15T01:41:49;18.20;;;7.40;;
57317;SDS011;43157;50.982;18.132;2024-01-15T01:44:15;17.30;;;7.00;;
57317;SDS011;43157;50.982;18.132;2024-01-15T01:46:40;17.00;;;6.00;;
57317;SDS011;43157;50.982;18.132;2024-01-15T01:49:06;17.00;;;5.90;;
57317;SDS011;43157;50.982;18.132;2024-01-15T01:51:33;14.50;;;5.50;;
57317;SDS011;43157;50.982;18.132;2024-01-15T01:53:59;15.30;;;6.10;;
57317;SDS011;43157;50.982;18.132;2024-01-15T01:56:25;13.60;;;4.30;;
57317;SDS011;43157;50.982;18.132;2024-01-15T01:58:52;14.40;;;5.00;;
57317;SDS011;43157;50.982;18.132;2024-01-15T02:01:20;14.70;;;6.20;;
57317;SDS011;43157;50.982;18.132;2024-01-15T02:03:46;17.80;;;6.40;;
57317;SDS011;43157;50.982;18.132;2024-01-15T02:06:11;23.00;;;6.90;;
57317;SDS011;43157;50.982;18.132;2024-01-15T02:08:37;20.10;;;6.10;;
57317;SDS011;43157;50.982;18.132;2024-01-15T02:11:03;28.20;;;8.50;;
57317;SDS011;43157;50.982;18.132;2024-01-15T02:13:29;19.50;;;6.10;;
57317;SDS011;43157;50.982;18.132;2024-01-15T02:15:55;23.30;;;8.80;;
57317;SDS011;43157;50.982;18.132;2024-01-15T02:18:20;19.80;;;7.10;;
57317;SDS011;43157;50.982;18.132;2024-01-15T02:20:46;19.50;;;7.10;;
57317;SDS011;43157;50.982;18.132;2024-01-15T02:23:12;14.30;;;5.30;;
57317;SDS011;43157;50.982;18.132;2024-01-15T02:25:42;12.10;;;4.60;;
57317;SDS011;43157;50.982;18.132;2024-01-15T02:28:12;12.60;;;4.60;;
57317;SDS011;43157;50.982;18.132;2024-01-15T02:30:39;12.40;;;4.10;;
57317;SDS011;43157;50.982;18.132;2024-01-15T02:33:06;13.10;;;4.60;;
57317;SDS011;43157;50.982;18.132;2024-01-15T02:35:32;14.10;;;5.10;;
57317;SDS011;43157;50.982;18.132;2024-01-15T02:37:58;11.80;;;4.50;;
57317;SDS011;43157;50.982;18.132;2024-01-15T02:40:24;14.30;;;4.40;;
57317;SDS011;43157;50.982;18.132;2024-01-15T02:42:49;13.90;;;5.30;;
57317;SDS011;43157;50.982;18.132;2024-01-15T02:45:15;13.50;;;5.20;;
57317;SDS011;43157;50.982;18.132;2024-01-15T02:47:41;15.30;;;5.10;;
57317;SDS011;43157;50.982;18.132;2024-01-15T02:50:07;19.50;;;7.60;;
57317;SDS011;43157;50.982;18.132;2024-01-15T02:52:32;45.70;;;13.70;;
57317;SDS011;43157;50.982;18.132;2024-01-15T02:54:57;35.80;;;13.10;;
57317;SDS011;43157;50.982;18.132;2024-01-15T02:57:23;49.40;;;15.10;;
57317;SDS011;43157;50.982;18.132;2024-01-15T02:59:49;39.80;;;10.60;;
57317;SDS011;43157;50.982;18.132;2024-01-15T03:02:14;46.10;;;13.60;;
57317;SDS011;43157;50.982;18.132;2024-01-15T03:04:46;32.30;;;10.40;;
57317;SDS011;43157;50.982;18.132;2024-01-15T03:07:11;20.00;;;7.00;;
57317;SDS011;43157;50.982;18.132;2024-01-15T03:09:37;18.70;;;7.30;;
57317;SDS011;43157;50.982;18.132;2024-01-15T03:12:03;16.00;;;6.10;;
57317;SDS011;43157;50.982;18.132;2024-01-15T03:14:29;14.00;;;5.10;;
57317;SDS011;43157;50.982;18.132;2024-01-15T03:16:54;14.00;;;4.60;;
57317;SDS011;43157;50.982;18.132;2024-01-15T03:19:20;13.40;;;5.00;;
57317;SDS011;43157;50.982;18.132;2024-01-15T03:21:46;14.90;;;5.30;;
57317;SDS011;43157;50.982;18.132;2024-01-15T03:24:11;43.40;;;12.30;;
57317;SDS011;43157;50.982;18.132;2024-01-15T03:26:37;21.90;;;6.60;;
57317;SDS011;43157;50.982;18.132;2024-01-15T03:29:02;31.10;;;8.60;;
57317;SDS011;43157;50.982;18.132;2024-01-15T03:31:28;21.40;;;6.20;;
57317;SDS011;43157;50.982;18.132;2024-01-15T03:33:53;16.20;;;5.10;;
57317;SDS011;43157;50.982;18.132;2024-01-15T03:36:19;19.70;;;6.80;;
57317;SDS011;43157;50.982;18.132;2024-01-15T03:38:45;15.40;;;6.70;;
57317;SDS011;43157;50.982;18.132;2024-01-15T03:41:10;13.70;;;5.50;;
57317;SDS011;43157;50.982;18.132;2024-01-15T03:43:36;14.20;;;6.00;;
57317;SDS011;43157;50.982;18.132;2024-01-15T03:46:01;15.00;;;6.10;;
57317;SDS011;43157;50.982;18.132;2024-01-15T03:48:27;16.80;;;5.80;;
57317;SDS011;43157;50.982;18.132;2024-01-15T03:50:53;16.40;;;6.30;;
57317;SDS011;43157;50.982;18.132;2024-01-15T03:53:19;17.40;;;5.70;;
57317;SDS011;43157;50.982;18.132;2024-01-15T03:55:44;13.50;;;5.60;;
57317;SDS011;43157;50.982;18.132;2024-01-15T03:58:10;16.90;;;6.00;;
57317;SDS011;43157;50.982;18.132;2024-01-15T04:00:35;16.50;;;5.10;;
57317;SDS011;43157;50.982;18.132;2024-01-15T04:03:01;16.10;;;6.90;;
57317;SDS011;43157;50.982;18.132;2024-01-15T04:05:26;16.60;;;6.90;;
57317;SDS011;43157;50.982;18.132;2024-01-15T04:07:52;14.20;;;5.50;;
57317;SDS011;43157;50.982;18.132;2024-01-15T04:10:17;17.00;;;5.70;;
57317;SDS011;43157;50.982;18.132;2024-01-15T04:12:43;15.40;;;5.50;;
57317;SDS011;43157;50.982;18.132;2024-01-15T04:15:09;16.20;;;6.30;;
57317;SDS011;43157;50.982;18.132;2024-01-15T04:17:34;12.20;;;5.00;;
57317;SDS011;43157;50.982;18.132;2024-01-15T04:20:00;16.20;;;6.20;;
57317;SDS011;43157;50.982;18.132;2024-01-15T04:22:26;13.00;;;4.40;;
57317;SDS011;43157;50.982;18.132;2024-01-15T04:24:52;15.90;;;5.00;;
57317;SDS011;43157;50.982;18.132;2024-01-15T04:27:17;15.80;;;5.80;;
57317;SDS011;43157;50.982;18.132;2024-01-15T04:29:43;14.00;;;4.80;;
57317;SDS011;43157;50.982;18.132;2024-01-15T04:32:12;13.80;;;4.60;;
57317;SDS011;43157;50.982;18.132;2024-01-15T04:34:37;16.10;;;6.10;;
57317;SDS011;43157;50.982;18.132;2024-01-15T04:37:03;17.60;;;6.10;;
57317;SDS011;43157;50.982;18.132;2024-01-15T04:39:28;16.00;;;5.40;;
57317;SDS011;43157;50.982;18.132;2024-01-15T04:41:54;13.10;;;4.90;;
57317;SDS011;43157;50.982;18.132;2024-01-15T04:44:20;16.20;;;6.20;;
57317;SDS011;43157;50.982;18.132;2024-01-15T04:46:45;15.40;;;5.60;;
57317;SDS011;43157;50.982;18.132;2024-01-15T04:49:11;16.80;;;6.70;;
57317;SDS011;43157;50.982;18.132;2024-01-15T04:51:37;14.90;;;5.90;;
57317;SDS011;43157;50.982;18.132;2024-01-15T04:54:03;19.60;;;7.80;;
57317;SDS011;43157;50.982;18.132;2024-01-15T04:56:29;18.50;;;6.40;;
57317;SDS011;43157;50.982;18.132;2024-01-15T04:58:54;14.20;;;4.60;;
57317;SDS011;43157;50.982;18.132;2024-01-15T05:01:20;15.90;;;6.10;;
57317;SDS011;43157;50.982;18.132;2024-01-15T05:03:45;15.80;;;5.40;;
57317;SDS011;43157;50.982;18.132;2024-01-15T05:06:11;18.70;;;8.00;;
57317;SDS011;43157;50.982;18.132;2024-01-15T05:08:36;16.40;;;4.40;;
57317;SDS011;43157;50.982;18.132;2024-01-15T05:11:02;16.90;;;6.10;;
57317;SDS011;43157;50.982;18.132;2024-01-15T05:13:27;16.30;;;6.00;;
57317;SDS011;43157;50.982;18.132;2024-01-15T05:15:53;21.30;;;7.90;;
57317;SDS011;43157;50.982;18.132;2024-01-15T05:18:19;26.60;;;11.00;;
57317;SDS011;43157;50.982;18.132;2024-01-15T05:20:44;22.70;;;9.20;;
57317;SDS011;43157;50.982;18.132;2024-01-15T05:23:10;33.70;;;11.70;;
57317;SDS011;43157;50.982;18.132;2024-01-15T05:25:35;53.20;;;18.40;;
57317;SDS011;43157;50.982;18.132;2024-01-15T05:28:01;41.20;;;12.40;;
57317;SDS011;43157;50.982;18.132;2024-01-15T05:30:27;28.00;;;11.20;;
57317;SDS011;43157;50.982;18.132;2024-01-15T05:32:53;20.20;;;7.10;;
57317;SDS011;43157;50.982;18.132;2024-01-15T05:35:19;21.80;;;8.00;;
57317;SDS011;43157;50.982;18.132;2024-01-15T05:37:45;20.80;;;8.40;;
57317;SDS011;43157;50.982;18.132;2024-01-15T05:40:11;17.90;;;6.80;;
57317;SDS011;43157;50.982;18.132;2024-01-15T05:42:38;16.50;;;6.90;;
57317;SDS011;43157;50.982;18.132;2024-01-15T05:45:04;19.80;;;7.80;;
57317;SDS011;43157;50.982;18.132;2024-01-15T05:47:31;20.20;;;6.50;;
57317;SDS011;43157;50.982;18.132;2024-01-15T05:49:56;20.90;;;7.80;;
57317;SDS011;43157;50.982;18.132;2024-01-15T05:52:23;28.90;;;9.40;;
57317;SDS011;43157;50.982;18.132;2024-01-15T05:54:51;22.60;;;7.80;;
57317;SDS011;43157;50.982;18.132;2024-01-15T05:57:16;20.80;;;8.00;;
57317;SDS011;43157;50.982;18.132;2024-01-15T05:59:42;17.10;;;5.30;;
57317;SDS011;43157;50.982;18.132;2024-01-15T06:02:09;22.80;;;8.30;;
57317;SDS011;43157;50.982;18.132;2024-01-15T06:04:37;17.90;;;7.40;;
57317;SDS011;43157;50.982;18.132;2024-01-15T06:07:03;22.40;;;8.80;;
57317;SDS011;43157;50.982;18.132;2024-01-15T06:09:29;25.90;;;9.60;;
57317;SDS011;43157;50.982;18.132;2024-01-15T06:11:55;24.40;;;9.00;;
57317;SDS011;43157;50.982;18.132;2024-01-15T06:14:20;21.80;;;8.50;;
57317;SDS011;43157;50.982;18.132;2024-01-15T06:16:46;22.20;;;8.60;;
57317;SDS011;43157;50.982;18.132;2024-01-15T06:19:11;20.10;;;8.20;;
57317;SDS011;43157;50.982;18.132;2024-01-15T06:21:37;44.50;;;14.70;;
57317;SDS011;43157;50.982;18.132;2024-01-15T06:24:03;41.60;;;13.70;;
57317;SDS011;43157;50.982;18.132;2024-01-15T06:26:28;36.60;;;12.80;;
57317;SDS011;43157;50.982;18.132;2024-01-15T06:28:54;35.10;;;11.70;;
57317;SDS011;43157;50.982;18.132;2024-01-15T06:31:21;26.00;;;10.60;;
57317;SDS011;43157;50.982;18.132;2024-01-15T06:33:46;27.40;;;9.70;;
57317;SDS011;43157;50.982;18.132;2024-01-15T06:36:13;24.00;;;8.60;;
57317;SDS011;43157;50.982;18.132;2024-01-15T06:38:39;25.40;;;10.20;;
57317;SDS011;43157;50.982;18.132;2024-01-15T06:41:06;25.20;;;9.90;;
57317;SDS011;43157;50.982;18.132;2024-01-15T06:43:31;26.40;;;10.00;;
57317;SDS011;43157;50.982;18.132;2024-01-15T06:45:57;42.80;;;14.60;;
57317;SDS011;43157;50.982;18.132;2024-01-15T06:48:22;34.70;;;11.50;;
57317;SDS011;43157;50.982;18.132;2024-01-15T06:50:48;38.50;;;12.50;;
57317;SDS011;43157;50.982;18.132;2024-01-15T06:53:14;59.30;;;16.40;;
57317;SDS011;43157;50.982;18.132;2024-01-15T06:55:39;42.60;;;13.50;;
57317;SDS011;43157;50.982;18.132;2024-01-15T06:58:05;27.80;;;9.40;;
57317;SDS011;43157;50.982;18.132;2024-01-15T07:00:30;21.20;;;9.00;;
57317;SDS011;43157;50.982;18.132;2024-01-15T07:02:56;27.40;;;11.00;;
57317;SDS011;43157;50.982;18.132;2024-01-15T07:05:22;22.70;;;8.70;;
57317;SDS011;43157;50.982;18.132;2024-01-15T07:07:47;22.40;;;9.80;;
57317;SDS011;43157;50.982;18.132;2024-01-15T07:10:15;27.00;;;9.20;;
57317;SDS011;43157;50.982;18.132;2024-01-15T07:12:41;27.20;;;10.70;;
57317;SDS011;43157;50.982;18.132;2024-01-15T07:15:08;22.80;;;8.60;;
57317;SDS011;43157;50.982;18.132;2024-01-15T07:17:35;19.90;;;9.50;;
57317;SDS011;43157;50.982;18.132;2024-01-15T07:20:01;19.10;;;6.50;;
57317;SDS011;43157;50.982;18.132;2024-01-15T07:22:27;25.90;;;8.20;;
57317;SDS011;43157;50.982;18.132;2024-01-15T07:24:53;17.50;;;6.80;;
57317;SDS011;43157;50.982;18.132;2024-01-15T07:27:19;22.00;;;8.40;;
57317;SDS011;43157;50.982;18.132;2024-01-15T07:29:45;19.00;;;6.60;;
57317;SDS011;43157;50.982;18.132;2024-01-15T07:43:59;24.20;;;9.60;;
57317;SDS011;43157;50.982;18.132;2024-01-15T07:46:25;30.60;;;11.30;;
57317;SDS011;43157;50.982;18.132;2024-01-15T07:48:50;23.60;;;8.10;;
57317;SDS011;43157;50.982;18.132;2024-01-15T07:51:21;30.60;;;9.60;;
57317;SDS011;43157;50.982;18.132;2024-01-15T07:53:47;29.50;;;11.90;;
57317;SDS011;43157;50.982;18.132;2024-01-15T07:56:13;27.70;;;10.10;;
57317;SDS011;43157;50.982;18.132;2024-01-15T07:58:39;32.80;;;11.70;;
57317;SDS011;43157;50.982;18.132;2024-01-15T08:01:04;35.00;;;11.30;;
57317;SDS011;43157;50.982;18.132;2024-01-15T08:03:30;26.40;;;9.40;;
57317;SDS011;43157;50.982;18.132;2024-01-15T08:05:56;45.70;;;12.30;;
57317;SDS011;43157;50.982;18.132;2024-01-15T08:08:22;69.20;;;18.60;;
57317;SDS011;43157;50.982;18.132;2024-01-15T08:10:48;39.30;;;15.10;;
57317;SDS011;43157;50.982;18.132;2024-01-15T08:13:14;51.70;;;15.30;;
57317;SDS011;43157;50.982;18.132;2024-01-15T08:15:40;65.60;;;18.80;;
57317;SDS011;43157;50.982;18.132;2024-01-15T08:18:06;60.00;;;18.50;;
57317;SDS011;43157;50.982;18.132;2024-01-15T08:20:32;36.40;;;14.10;;
57317;SDS011;43157;50.982;18.132;2024-01-15T08:22:58;30.30;;;9.80;;
57317;SDS011;43157;50.982;18.132;2024-01-15T08:25:23;54.90;;;15.00;;
57317;SDS011;43157;50.982;18.132;2024-01-15T08:27:49;54.70;;;15.90;;
57317;SDS011;43157;50.982;18.132;2024-01-15T08:30:14;58.90;;;18.60;;
57317;SDS011;43157;50.982;18.132;2024-01-15T08:32:40;42.50;;;13.70;;
57317;SDS011;43157;50.982;18.132;2024-01-15T08:35:08;50.80;;;14.70;;
57317;SDS011;43157;50.982;18.132;2024-01-15T08:37:34;50.70;;;16.70;;
57317;SDS011;43157;50.982;18.132;2024-01-15T08:40:00;40.90;;;13.30;;
57317;SDS011;43157;50.982;18.132;2024-01-15T08:42:25;62.20;;;20.40;;
57317;SDS011;43157;50.982;18.132;2024-01-15T08:44:51;74.50;;;22.10;;
57317;SDS011;43157;50.982;18.132;2024-01-15T08:47:16;45.40;;;15.40;;
57317;SDS011;43157;50.982;18.132;2024-01-15T08:49:42;65.10;;;19.90;;
57317;SDS011;43157;50.982;18.132;2024-01-15T08:52:09;59.60;;;20.00;;
57317;SDS011;43157;50.982;18.132;2024-01-15T08:54:38;44.20;;;15.00;;
57317;SDS011;43157;50.982;18.132;2024-01-15T08:57:03;38.40;;;11.90;;
57317;SDS011;43157;50.982;18.132;2024-01-15T08:59:29;43.10;;;11.30;;
57317;SDS011;43157;50.982;18.132;2024-01-15T09:01:55;36.60;;;12.60;;
57317;SDS011;43157;50.982;18.132;2024-01-15T09:04:22;34.80;;;13.00;;
57317;SDS011;43157;50.982;18.132;2024-01-15T09:06:48;24.80;;;10.60;;
57317;SDS011;43157;50.982;18.132;2024-01-15T09:09:14;26.90;;;9.40;;
57317;SDS011;43157;50.982;18.132;2024-01-15T09:11:40;23.50;;;9.90;;
57317;SDS011;43157;50.982;18.132;2024-01-15T09:14:06;32.30;;;11.60;;
57317;SDS011;43157;50.982;18.132;2024-01-15T09:16:33;32.70;;;10.40;;
57317;SDS011;43157;50.982;18.132;2024-01-15T09:18:59;53.80;;;16.00;;
57317;SDS011;43157;50.982;18.132;2024-01-15T09:21:25;33.30;;;11.50;;
57317;SDS011;43157;50.982;18.132;2024-01-15T09:23:50;52.80;;;18.50;;
57317;SDS011;43157;50.982;18.132;2024-01-15T09:26:16;41.20;;;14.00;;
57317;SDS011;43157;50.982;18.132;2024-01-15T09:28:42;25.00;;;10.10;;
57317;SDS011;43157;50.982;18.132;2024-01-15T09:31:08;49.50;;;17.90;;
57317;SDS011;43157;50.982;18.132;2024-01-15T09:33:34;33.80;;;12.60;;
57317;SDS011;43157;50.982;18.132;2024-01-15T09:36:03;25.30;;;10.90;;
57317;SDS011;43157;50.982;18.132;2024-01-15T09:38:30;55.60;;;25.30;;
57317;SDS011;43157;50.982;18.132;2024-01-15T09:40:57;39.60;;;15.60;;
57317;SDS011;43157;50.982;18.132;2024-01-15T09:43:22;31.30;;;15.30;;
57317;SDS011;43157;50.982;18.132;2024-01-15T09:45:49;32.00;;;15.10;;
57317;SDS011;43157;50.982;18.132;2024-01-15T09:48:15;53.70;;;20.90;;
57317;SDS011;43157;50.982;18.132;2024-01-15T09:50:42;58.30;;;22.10;;
57317;SDS011;43157;50.982;18.132;2024-01-15T09:53:08;39.20;;;17.50;;
57317;SDS011;43157;50.982;18.132;2024-01-15T09:55:38;26.90;;;10.20;;
57317;SDS011;43157;50.982;18.132;2024-01-15T09:58:03;28.10;;;11.20;;
57317;SDS011;43157;50.982;18.132;2024-01-15T10:00:29;23.50;;;10.30;;
57317;SDS011;43157;50.982;18.132;2024-01-15T10:02:58;44.00;;;15.80;;
57317;SDS011;43157;50.982;18.132;2024-01-15T10:05:28;48.40;;;15.90;;
57317;SDS011;43157;50.982;18.132;2024-01-15T10:07:54;38.40;;;13.30;;
57317;SDS011;43157;50.982;18.132;2024-01-15T10:10:21;32.90;;;12.60;;
57317;SDS011;43157;50.982;18.132;2024-01-15T10:12:47;32.70;;;12.80;;
57317;SDS011;43157;50.982;18.132;2024-01-15T10:15:13;36.30;;;13.90;;
57317;SDS011;43157;50.982;18.132;2024-01-15T10:17:39;28.40;;;13.20;;
57317;SDS011;43157;50.982;18.132;2024-01-15T10:20:09;23.30;;;11.00;;
57317;SDS011;43157;50.982;18.132;2024-01-15T10:22:35;20.90;;;8.40;;
57317;SDS011;43157;50.982;18.132;2024-01-15T10:25:04;19.60;;;7.30;;
57317;SDS011;43157;50.982;18.132;2024-01-15T10:27:30;19.60;;;8.20;;
57317;SDS011;43157;50.982;18.132;2024-01-15T10:29:59;21.70;;;8.60;;
57317;SDS011;43157;50.982;18.132;2024-01-15T10:32:25;24.10;;;9.90;;
57317;SDS011;43157;50.982;18.132;2024-01-15T10:34:52;33.20;;;11.80;;
57317;SDS011;43157;50.982;18.132;2024-01-15T10:37:18;56.30;;;16.50;;
57317;SDS011;43157;50.982;18.132;2024-01-15T10:39:45;51.40;;;15.10;;
57317;SDS011;43157;50.982;18.132;2024-01-15T10:42:11;49.30;;;17.50;;
57317;SDS011;43157;50.982;18.132;2024-01-15T10:44:37;32.90;;;11.60;;
57317;SDS011;43157;50.982;18.132;2024-01-15T10:47:03;23.80;;;9.70;;
57317;SDS011;43157;50.982;18.132;2024-01-15T10:49:29;25.60;;;11.50;;
57317;SDS011;43157;50.982;18.132;2024-01-15T10:51:56;27.40;;;11.20;;
57317;SDS011;43157;50.982;18.132;2024-01-15T10:54:22;23.80;;;7.90;;
57317;SDS011;43157;50.982;18.132;2024-01-15T10:56:52;46.70;;;13.90;;
57317;SDS011;43157;50.982;18.132;2024-01-15T10:59:19;101.80;;;25.00;;
57317;SDS011;43157;50.982;18.132;2024-01-15T11:01:45;87.10;;;23.20;;
57317;SDS011;43157;50.982;18.132;2024-01-15T11:04:12;67.70;;;18.30;;
57317;SDS011;43157;50.982;18.132;2024-01-15T11:06:40;38.00;;;12.80;;
57317;SDS011;43157;50.982;18.132;2024-01-15T11:09:10;20.60;;;7.80;;
57317;SDS011;43157;50.982;18.132;2024-01-15T11:11:40;26.80;;;12.60;;
57317;SDS011;43157;50.982;18.132;2024-01-15T11:14:06;27.60;;;12.00;;
57317;SDS011;43157;50.982;18.132;2024-01-15T11:19:24;29.70;;;12.20;;
57317;SDS011;43157;50.982;18.132;2024-01-15T11:21:50;49.30;;;14.50;;
57317;SDS011;43157;50.982;18.132;2024-01-15T11:24:34;46.20;;;13.20;;
57317;SDS011;43157;50.982;18.132;2024-01-15T11:27:04;47.70;;;14.40;;
57317;SDS011;43157;50.982;18.132;2024-01-15T11:29:34;46.80;;;12.70;;
57317;SDS011;43157;50.982;18.132;2024-01-15T11:32:07;52.40;;;16.90;;
57317;SDS011;43157;50.982;18.132;2024-01-15T11:37:24;31.30;;;12.30;;
57317;SDS011;43157;50.982;18.132;2024-01-15T11:40:01;36.80;;;11.40;;
57317;SDS011;43157;50.982;18.132;2024-01-15T11:42:29;30.90;;;10.50;;
57317;SDS011;43157;50.982;18.132;2024-01-15T11:44:55;43.30;;;14.60;;
57317;SDS011;43157;50.982;18.132;2024-01-15T11:47:33;40.70;;;13.40;;
57317;SDS011;43157;50.982;18.132;2024-01-15T11:50:05;41.10;;;13.90;;
57317;SDS011;43157;50.982;18.132;2024-01-15T11:52:32;43.40;;;15.20;;
57317;SDS011;43157;50.982;18.132;2024-01-15T11:55:06;36.20;;;13.10;;
57317;SDS011;43157;50.982;18.132;2024-01-15T11:57:49;29.20;;;11.90;;
57317;SDS011;43157;50.982;18.132;2024-01-15T12:00:16;21.80;;;8.70;;
57317;SDS011;43157;50.982;18.132;2024-01-15T12:02:43;24.40;;;9.00;;
57317;SDS011;43157;50.982;18.132;2024-01-15T12:05:10;20.50;;;7.10;;
57317;SDS011;43157;50.982;18.132;2024-01-15T12:07:40;22.20;;;7.90;;
57317;SDS011;43157;50.982;18.132;2024-01-15T12:12:44;45.20;;;12.90;;
57317;SDS011;43157;50.982;18.132;2024-01-15T12:15:32;54.70;;;17.20;;
57317;SDS011;43157;50.982;18.132;2024-01-15T12:17:59;66.20;;;19.90;;
57317;SDS011;43157;50.982;18.132;2024-01-15T12:20:27;44.20;;;14.20;;
57317;SDS011;43157;50.982;18.132;2024-01-15T12:22:54;29.80;;;13.00;;
57317;SDS011;43157;50.982;18.132;2024-01-15T12:25:23;27.40;;;11.10;;
57317;SDS011;43157;50.982;18.132;2024-01-15T12:27:50;30.30;;;12.00;;
57317;SDS011;43157;50.982;18.132;2024-01-15T12:30:16;24.50;;;9.80;;
57317;SDS011;43157;50.982;18.132;2024-01-15T12:32:43;23.80;;;9.90;;
57317;SDS011;43157;50.982;18.132;2024-01-15T12:35:10;21.50;;;8.30;;
57317;SDS011;43157;50.982;18.132;2024-01-15T12:37:36;25.70;;;8.90;;
57317;SDS011;43157;50.982;18.132;2024-01-15T12:40:06;36.00;;;10.50;;
57317;SDS011;43157;50.982;18.132;2024-01-15T12:42:32;47.70;;;14.60;;
57317;SDS011;43157;50.982;18.132;2024-01-15T12:44:59;48.10;;;15.60;;
57317;SDS011;43157;50.982;18.132;2024-01-15T12:47:25;20.80;;;7.60;;
57317;SDS011;43157;50.982;18.132;2024-01-15T12:49:52;51.00;;;16.20;;
57317;SDS011;43157;50.982;18.132;2024-01-15T12:52:21;33.30;;;11.60;;
57317;SDS011;43157;50.982;18.132;2024-01-15T12:54:49;34.70;;;13.10;;
57317;SDS011;43157;50.982;18.132;2024-01-15T12:57:16;31.60;;;12.10;;
57317;SDS011;43157;50.982;18.132;2024-01-15T12:59:45;25.20;;;8.70;;
57317;SDS011;43157;50.982;18.132;2024-01-15T13:02:14;24.50;;;9.50;;
57317;SDS011;43157;50.982;18.132;2024-01-15T13:04:39;21.40;;;8.50;;
57317;SDS011;43157;50.982;18.132;2024-01-15T13:07:05;28.80;;;10.50;;
57317;SDS011;43157;50.982;18.132;2024-01-15T13:09:32;34.20;;;11.90;;
57317;SDS011;43157;50.982;18.132;2024-01-15T13:11:58;33.00;;;10.80;;
57317;SDS011;43157;50.982;18.132;2024-01-15T13:14:24;67.00;;;20.60;;
57317;SDS011;43157;50.982;18.132;2024-01-15T13:16:50;36.30;;;12.20;;
57317;SDS011;43157;50.982;18.132;2024-01-15T13:19:16;41.30;;;13.80;;
57317;SDS011;43157;50.982;18.132;2024-01-15T13:21:42;35.10;;;14.40;;
57317;SDS011;43157;50.982;18.132;2024-01-15T13:24:07;36.10;;;13.20;;
57317;SDS011;43157;50.982;18.132;2024-01-15T13:26:34;23.00;;;9.10;;
57317;SDS011;43157;50.982;18.132;2024-01-15T13:29:00;28.00;;;11.40;;
57317;SDS011;43157;50.982;18.132;2024-01-15T13:31:27;18.70;;;7.00;;
57317;SDS011;43157;50.982;18.132;2024-01-15T13:33:54;22.40;;;6.60;;
57317;SDS011;43157;50.982;18.132;2024-01-15T13:36:21;27.30;;;9.30;;
57317;SDS011;43157;50.982;18.132;2024-01-15T13:38:49;49.00;;;14.10;;
57317;SDS011;43157;50.982;18.132;2024-01-15T13:41:15;68.40;;;19.10;;
57317;SDS011;43157;50.982;18.132;2024-01-15T13:43:45;77.20;;;22.40;;
57317;SDS011;43157;50.982;18.132;2024-01-15T13:46:11;42.60;;;13.80;;
57317;SDS011;43157;50.982;18.132;2024-01-15T13:48:36;34.40;;;11.10;;
57317;SDS011;43157;50.982;18.132;2024-01-15T13:51:02;33.90;;;11.70;;
57317;SDS011;43157;50.982;18.132;2024-01-15T13:53:28;35.10;;;13.00;;
57317;SDS011;43157;50.982;18.132;2024-01-15T13:55:54;27.90;;;11.50;;
57317;SDS011;43157;50.982;18.132;2024-01-15T13:58:20;21.30;;;8.30;;
57317;SDS011;43157;50.982;18.132;2024-01-15T14:00:47;22.90;;;8.80;;
57317;SDS011;43157;50.982;18.132;2024-01-15T14:03:14;23.40;;;7.90;;
57317;SDS011;43157;50.982;18.132;2024-01-15T14:05:40;19.60;;;8.90;;
57317;SDS011;43157;50.982;18.132;2024-01-15T14:08:05;22.10;;;7.90;;
57317;SDS011;43157;50.982;18.132;2024-01-15T14:10:31;19.70;;;7.60;;
57317;SDS011;43157;50.982;18.132;2024-01-15T14:12:56;20.40;;;7.40;;
57317;SDS011;43157;50.982;18.132;2024-01-15T14:15:22;18.20;;;7.80;;
57317;SDS011;43157;50.982;18.132;2024-01-15T14:17:48;19.00;;;6.30;;
57317;SDS011;43157;50.982;18.132;2024-01-15T14:20:14;19.60;;;7.20;;
57317;SDS011;43157;50.982;18.132;2024-01-15T14:22:40;18.00;;;6.50;;
57317;SDS011;43157;50.982;18.132;2024-01-15T14:25:06;22.30;;;9.10;;
57317;SDS011;43157;50.982;18.132;2024-01-15T14:27:33;18.50;;;6.70;;
57317;SDS011;43157;50.982;18.132;2024-01-15T14:29:58;19.90;;;7.70;;
57317;SDS011;43157;50.982;18.132;2024-01-15T14:32:24;18.30;;;6.90;;